createdAt,value
2022-09-06T00:00:18.225Z,95394.40
2022-09-06T00:02:45.440Z,95393.27
2022-09-06T00:05:13.512Z,95393.49
2022-09-06T00:07:41.385Z,95390.63
2022-09-06T00:10:08.906Z,95385.15
2022-09-06T00:12:36.248Z,95385.93
2022-09-06T00:15:05.587Z,95386.34
2022-09-06T00:17:33.649Z,95384.44
2022-09-06T00:20:01.020Z,95385.92
2022-09-06T00:22:27.882Z,95384.48
2022-09-06T00:24:54.657Z,95383.85
2022-09-06T00:27:21.505Z,95384.77
2022-09-06T00:29:48.446Z,95383.16
2022-09-06T00:32:15.263Z,95385.96
2022-09-06T00:34:42.377Z,95384.80
2022-09-06T00:37:09.807Z,95386.34
2022-09-06T00:39:36.697Z,95384.40
2022-09-06T00:42:07.663Z,95386.71
2022-09-06T00:44:34.417Z,95388.20
2022-09-06T00:47:01.441Z,95386.42
2022-09-06T00:49:32.955Z,95389.06
2022-09-06T00:52:08.290Z,95387.84
2022-09-06T00:54:36.343Z,95391.88
2022-09-06T00:57:03.519Z,95391.14
2022-09-06T00:59:33.879Z,95390.42
2022-09-06T01:02:00.780Z,95391.34
2022-09-06T01:04:29.102Z,95393.66
2022-09-06T01:07:14.236Z,95393.20
2022-09-06T01:10:02.858Z,95392.91
2022-09-06T01:12:32.417Z,95391.70
2022-09-06T01:15:21.417Z,95393.23
2022-09-06T01:18:04.368Z,95394.95
2022-09-06T01:20:46.994Z,95394.13
2022-09-06T01:23:51.489Z,95397.25
2022-09-06T01:26:27.207Z,95393.11
2022-09-06T01:28:55.012Z,95392.39
2022-09-06T01:31:44.907Z,95392.95
2022-09-06T01:34:29.838Z,95391.50
2022-09-06T01:37:10.340Z,95393.41
2022-09-06T01:39:39.524Z,95389.77
2022-09-06T01:42:14.813Z,95392.40
2022-09-06T01:44:48.360Z,95394.25
2022-09-06T01:47:47.629Z,95397.48
2022-09-06T01:50:29.665Z,95393.94
2022-09-06T01:53:05.468Z,95387.75
2022-09-06T01:55:38.267Z,95383.35
2022-09-06T01:58:07.800Z,95382.36
2022-09-06T02:00:43.646Z,95378.94
2022-09-06T02:03:26.343Z,95371.52
2022-09-06T02:05:58.373Z,95369.65
2022-09-06T02:08:40.030Z,95368.37
2022-09-06T02:11:09.533Z,95368.27
2022-09-06T02:13:48.356Z,95369.27
2022-09-06T02:16:23.041Z,95368.88
2022-09-06T02:19:09.613Z,95368.86
2022-09-06T02:21:40.521Z,95363.70
2022-09-06T02:24:12.122Z,95361.95
2022-09-06T02:26:43.803Z,95358.05
2022-09-06T02:29:11.190Z,95355.80
2022-09-06T02:31:45.660Z,95353.73
2022-09-06T02:34:16.136Z,95352.13
2022-09-06T02:36:43.356Z,95349.89
2022-09-06T02:39:10.421Z,95349.60
2022-09-06T02:41:38.696Z,95350.89
2022-09-06T02:44:06.089Z,95351.98
2022-09-06T02:46:33.044Z,95353.45
2022-09-06T02:48:59.849Z,95357.71
2022-09-06T02:51:26.661Z,95358.38
2022-09-06T02:53:53.551Z,95359.41
2022-09-06T02:56:20.403Z,95363.67
2022-09-06T02:58:47.236Z,95366.23
2022-09-06T03:01:14.108Z,95360.35
2022-09-06T03:03:40.909Z,95360.36
2022-09-06T03:06:07.790Z,95358.42
2022-09-06T03:08:36.754Z,95359.24
2022-09-06T03:11:03.578Z,95360.50
2022-09-06T03:13:30.392Z,95363.13
2022-09-06T03:15:59.852Z,95365.92
2022-09-06T03:18:29.113Z,95362.58
2022-09-06T03:20:56.953Z,95362.23
2022-09-06T03:23:26.203Z,95360.94
2022-09-06T03:25:54.308Z,95365.67
2022-09-06T03:28:22.138Z,95367.39
2022-09-06T03:30:51.210Z,95361.97
2022-09-06T03:33:19.356Z,95358.90
2022-09-06T03:35:50.527Z,95357.54
2022-09-06T03:38:17.754Z,95351.70
2022-09-06T03:40:46.923Z,95359.84
2022-09-06T03:43:14.373Z,95361.10
2022-09-06T03:45:46.145Z,95353.51
2022-09-06T03:48:13.056Z,95353.50
2022-09-06T03:50:45.084Z,95355.91
2022-09-06T03:53:12.318Z,95353.30
2022-09-06T03:55:39.731Z,95352.25
2022-09-06T03:58:06.579Z,95353.63
2022-09-06T04:00:34.052Z,95360.76
2022-09-06T04:03:01.851Z,95358.35
2022-09-06T04:05:28.938Z,95355.70
2022-09-06T04:07:55.709Z,95359.78
2022-09-06T04:10:22.615Z,95365.83
2022-09-06T04:12:49.323Z,95372.33
2022-09-06T04:15:16.261Z,95364.13
2022-09-06T04:17:47.246Z,95370.20
2022-09-06T04:20:15.198Z,95377.77
2022-09-06T04:22:42.421Z,95376.72
2022-09-06T04:25:09.835Z,95377.96
2022-09-06T04:27:36.683Z,95373.55
2022-09-06T04:30:04.288Z,95375.52
2022-09-06T04:32:33.081Z,95382.05
2022-09-06T04:35:00.013Z,95381.02
2022-09-06T04:37:26.897Z,95383.27
2022-09-06T04:39:54.574Z,95382.24
2022-09-06T04:42:21.941Z,95381.95
2022-09-06T04:44:49.343Z,95384.94
2022-09-06T04:47:18.463Z,95379.64
2022-09-06T04:49:45.894Z,95375.60
2022-09-06T04:52:13.454Z,95376.66
2022-09-06T04:54:40.173Z,95374.90
2022-09-06T04:57:07.072Z,95378.67
2022-09-06T04:59:33.839Z,95374.58
2022-09-06T05:02:00.684Z,95373.17
2022-09-06T05:04:27.573Z,95371.98
2022-09-06T05:07:02.432Z,95374.48
2022-09-06T05:09:29.742Z,95382.68
2022-09-06T05:11:56.497Z,95384.99
2022-09-06T05:14:23.788Z,95383.85
2022-09-06T05:16:51.574Z,95381.22
2022-09-06T05:19:19.249Z,95379.16
2022-09-06T05:21:46.299Z,95378.33
2022-09-06T05:24:13.082Z,95384.73
2022-09-06T05:26:39.773Z,95388.30
2022-09-06T05:29:06.608Z,95385.17
2022-09-06T05:31:35.730Z,95386.27
2022-09-06T05:34:02.557Z,95383.33
2022-09-06T05:36:31.123Z,95382.70
2022-09-06T05:38:59.133Z,95384.27
2022-09-06T05:41:26.671Z,95387.86
2022-09-06T05:43:53.768Z,95382.61
2022-09-06T05:46:20.904Z,95381.31
2022-09-06T05:49:01.547Z,95383.18
2022-09-06T05:51:28.293Z,95386.23
2022-09-06T05:53:55.106Z,95386.38
2022-09-06T05:56:22.822Z,95386.71
2022-09-06T05:58:50.128Z,95382.30
2022-09-06T06:01:28.312Z,95380.64
2022-09-06T06:03:59.376Z,95383.69
2022-09-06T06:06:28.438Z,95386.04
2022-09-06T06:08:56.508Z,95382.89
2022-09-06T06:11:25.485Z,95384.22
2022-09-06T06:13:52.796Z,95378.98
2022-09-06T06:16:22.197Z,95380.77
2022-09-06T06:18:52.359Z,95383.33
2022-09-06T06:21:31.332Z,95383.98
2022-09-06T06:24:03.506Z,95388.50
2022-09-06T06:26:33.580Z,95382.55
2022-09-06T06:29:02.564Z,95383.70
2022-09-06T06:31:30.861Z,95384.79
2022-09-06T06:33:58.598Z,95380.17
2022-09-06T06:36:27.413Z,95384.96
2022-09-06T06:38:55.616Z,95379.20
2022-09-06T06:41:25.030Z,95377.27
2022-09-06T06:43:58.266Z,95378.71
2022-09-06T06:46:31.627Z,95377.27
2022-09-06T06:48:58.786Z,95380.64
2022-09-06T06:51:28.520Z,95378.42
2022-09-06T06:53:58.734Z,95377.98
2022-09-06T06:56:30.135Z,95378.97
2022-09-06T06:58:59.797Z,95381.05
2022-09-06T07:01:28.954Z,95378.95
2022-09-06T07:03:56.378Z,95379.69
2022-09-06T07:09:11.165Z,95378.98
2022-09-06T07:11:38.569Z,95377.75
2022-09-06T07:14:05.330Z,95382.05
2022-09-06T07:16:32.208Z,95385.60
2022-09-06T07:18:59.106Z,95383.42
2022-09-06T07:24:08.877Z,95389.71
2022-09-06T07:26:39.589Z,95387.45
2022-09-06T07:29:13.424Z,95389.48
2022-09-06T07:34:29.613Z,95389.33
2022-09-06T07:36:56.835Z,95386.36
2022-09-06T07:39:24.094Z,95386.98
2022-09-06T07:41:50.904Z,95387.83
2022-09-06T07:44:17.750Z,95388.39
2022-09-06T07:46:44.768Z,95384.27
2022-09-06T07:49:11.765Z,95386.19
2022-09-06T07:51:38.565Z,95388.89
2022-09-06T07:54:28.941Z,95382.85
2022-09-06T07:56:53.999Z,95386.43
2022-09-06T07:59:20.773Z,95383.48
2022-09-06T08:01:48.462Z,95386.34
2022-09-06T08:04:15.738Z,95387.10
2022-09-06T08:09:33.603Z,95391.58
2022-09-06T08:12:07.035Z,95389.73
2022-09-06T08:14:34.981Z,95389.91
2022-09-06T08:17:03.001Z,95383.48
2022-09-06T08:19:29.848Z,95386.09
2022-09-06T08:21:57.078Z,95381.93
2022-09-06T08:24:24.008Z,95378.86
2022-09-06T08:26:50.967Z,95377.60
2022-09-06T08:29:19.122Z,95372.22
2022-09-06T08:31:46.678Z,95369.82
2022-09-06T08:34:14.561Z,95367.56
2022-09-06T08:36:42.926Z,95369.74
2022-09-06T08:39:10.857Z,95371.70
2022-09-06T08:41:57.263Z,95368.71
2022-09-06T08:47:22.510Z,95363.84
2022-09-06T08:49:56.895Z,95360.92
2022-09-06T08:53:16.225Z,95364.61
2022-09-06T08:55:55.378Z,95364.44
2022-09-06T08:58:41.049Z,95366.67
2022-09-06T09:01:14.652Z,95357.49
2022-09-06T09:03:44.124Z,95348.13
2022-09-06T09:06:11.074Z,95353.52
2022-09-06T09:09:08.761Z,95355.45
2022-09-06T09:11:36.621Z,95352.66
2022-09-06T09:14:16.271Z,95351.03
2022-09-06T09:16:43.536Z,95345.94
2022-09-06T09:19:10.444Z,95344.31
2022-09-06T09:21:40.630Z,95347.89
2022-09-06T09:24:13.458Z,95347.62
2022-09-06T09:26:50.055Z,95343.58
2022-09-06T09:29:17.398Z,95338.77
2022-09-06T09:31:53.998Z,95339.33
2022-09-06T09:34:35.496Z,95331.92
2022-09-06T09:40:30.611Z,95326.41
2022-09-06T09:43:26.526Z,95324.93
2022-09-06T09:46:30.478Z,95330.38
2022-09-06T09:49:14.108Z,95325.54
2022-09-06T09:52:05.941Z,95325.93
2022-09-06T09:54:37.492Z,95325.35
2022-09-06T09:57:14.001Z,95317.55
2022-09-06T09:59:46.460Z,95319.84
2022-09-06T10:02:18.778Z,95315.35
2022-09-06T10:04:52.284Z,95315.45
2022-09-06T10:07:24.850Z,95307.73
2022-09-06T10:10:13.678Z,95306.93
2022-09-06T10:12:42.857Z,95308.73
2022-09-06T10:15:33.645Z,95308.33
2022-09-06T10:18:00.499Z,95306.80
2022-09-06T10:20:46.410Z,95305.86
2022-09-06T10:23:18.586Z,95308.55
2022-09-06T10:25:49.534Z,95303.59
2022-09-06T10:28:28.267Z,95304.87
2022-09-06T10:31:13.585Z,95301.94
2022-09-06T10:34:08.332Z,95301.10
2022-09-06T10:36:39.373Z,95294.15
2022-09-06T10:39:38.576Z,95288.40
2022-09-06T10:42:22.304Z,95286.45
2022-09-06T10:45:22.371Z,95288.51
2022-09-06T10:48:16.574Z,95280.10
2022-09-06T10:50:55.244Z,95281.13
2022-09-06T10:53:22.065Z,95277.66
2022-09-06T10:55:59.736Z,95272.65
2022-09-06T11:02:00.653Z,95279.89
2022-09-06T11:07:42.829Z,95271.60
2022-09-06T11:10:30.556Z,95262.92
2022-09-06T11:13:03.364Z,95263.23
2022-09-06T11:15:41.956Z,95263.40
2022-09-06T11:18:42.997Z,95265.35
2022-09-06T11:21:49.572Z,95264.98
2022-09-06T11:24:29.897Z,95258.39
2022-09-06T11:27:21.705Z,95257.17
2022-09-06T11:29:56.702Z,95252.70
2022-09-06T11:32:35.759Z,95252.57
2022-09-06T11:35:10.192Z,95252.83
2022-09-06T11:37:44.803Z,95254.32
2022-09-06T11:40:27.263Z,95250.67
2022-09-06T11:42:55.250Z,95250.01
2022-09-06T11:45:44.893Z,95248.46
2022-09-06T11:48:24.143Z,95246.66
2022-09-06T11:50:57.220Z,95251.73
2022-09-06T11:53:32.052Z,95248.71
2022-09-06T11:56:02.756Z,95245.42
2022-09-06T11:58:41.505Z,95244.89
2022-09-06T12:01:17.262Z,95243.83
2022-09-06T12:04:09.918Z,95239.88
2022-09-06T12:07:07.038Z,95235.45
2022-09-06T12:09:37.285Z,95229.66
2022-09-06T12:12:05.934Z,95223.89
2022-09-06T12:14:32.697Z,95219.40
2022-09-06T12:16:59.482Z,95219.52
2022-09-06T12:19:44.322Z,95217.40
2022-09-06T12:22:29.823Z,95211.86
2022-09-06T12:25:01.890Z,95214.45
2022-09-06T12:27:58.133Z,95211.08
2022-09-06T12:30:44.373Z,95206.52
2022-09-06T12:33:20.784Z,95202.37
2022-09-06T12:36:05.866Z,95200.72
2022-09-06T12:38:34.479Z,95196.11
2022-09-06T12:41:01.946Z,95195.00
2022-09-06T12:43:29.791Z,95198.30
2022-09-06T12:45:56.790Z,95195.36
2022-09-06T12:48:30.812Z,95194.41
2022-09-06T12:51:05.919Z,95189.70
2022-09-06T12:53:34.707Z,95193.88
2022-09-06T12:56:08.020Z,95191.94
2022-09-06T12:58:36.715Z,95192.77
2022-09-06T13:01:14.941Z,95190.06
2022-09-06T13:03:50.562Z,95187.16
2022-09-06T13:06:26.664Z,95186.06
2022-09-06T13:08:57.365Z,95185.24
2022-09-06T13:11:32.945Z,95188.28
2022-09-06T13:14:01.026Z,95187.95
2022-09-06T13:16:36.981Z,95188.00
2022-09-06T13:19:15.762Z,95186.66
2022-09-06T13:21:45.039Z,95185.02
2022-09-06T13:24:26.980Z,95186.63
2022-09-06T13:26:54.939Z,95181.55
2022-09-06T13:29:24.215Z,95177.15
2022-09-06T13:31:53.913Z,95179.20
2022-09-06T13:34:21.902Z,95177.08
2022-09-06T13:36:52.265Z,95177.07
2022-09-06T13:39:32.578Z,95180.50
2022-09-06T13:42:07.944Z,95175.27
2022-09-06T13:44:36.972Z,95176.20
2022-09-06T13:47:04.549Z,95174.71
2022-09-06T13:49:32.653Z,95173.02
2022-09-06T13:52:02.682Z,95170.60
2022-09-06T13:54:32.610Z,95172.90
2022-09-06T13:57:01.874Z,95173.75
2022-09-06T13:59:30.543Z,95171.88
2022-09-06T14:02:07.150Z,95169.70
2022-09-06T14:04:34.587Z,95165.44
2022-09-06T14:07:01.478Z,95165.19
2022-09-06T14:09:28.771Z,95163.64
2022-09-06T14:11:56.227Z,95161.63
2022-09-06T14:14:23.323Z,95158.79
2022-09-06T14:16:54.318Z,95152.84
2022-09-06T14:19:21.739Z,95153.86
2022-09-06T14:21:48.620Z,95152.80
2022-09-06T14:24:15.478Z,95156.60
2022-09-06T14:26:42.740Z,95153.53
2022-09-06T14:29:09.970Z,95149.05
2022-09-06T14:31:36.768Z,95143.95
2022-09-06T14:34:05.421Z,95144.30
2022-09-06T14:36:33.890Z,95141.52
2022-09-06T14:39:02.217Z,95140.38
2022-09-06T14:41:29.409Z,95137.19
2022-09-06T14:43:58.031Z,95137.77
2022-09-06T14:46:26.980Z,95138.48
2022-09-06T14:49:08.466Z,95136.25
2022-09-06T14:51:37.103Z,95137.13
2022-09-06T14:54:12.262Z,95136.73
2022-09-06T14:56:41.386Z,95131.14
2022-09-06T14:59:09.308Z,95128.82
2022-09-06T15:01:38.735Z,95121.25
2022-09-06T15:04:08.342Z,95117.41
2022-09-06T15:06:37.172Z,95115.65
2022-09-06T15:09:05.836Z,95114.08
2022-09-06T15:11:44.208Z,95113.30
2022-09-06T15:14:25.536Z,95112.45
2022-09-06T15:16:56.502Z,95118.25
2022-09-06T15:19:25.083Z,95115.54
2022-09-06T15:21:51.888Z,95120.38
2022-09-06T15:24:19.725Z,95119.46
2022-09-06T15:26:46.604Z,95120.77
2022-09-06T15:29:15.698Z,95123.34
2022-09-06T15:31:43.293Z,95123.55
2022-09-06T15:34:10.691Z,95121.02
2022-09-06T15:36:38.450Z,95117.12
2022-09-06T15:39:06.487Z,95116.68
2022-09-06T15:41:37.431Z,95111.73
2022-09-06T15:44:10.889Z,95112.13
2022-09-06T15:46:54.140Z,95115.30
2022-09-06T15:49:27.466Z,95114.48
2022-09-06T15:51:56.408Z,95117.67
2022-09-06T15:54:41.894Z,95114.92
2022-09-06T15:57:09.611Z,95118.95
2022-09-06T15:59:36.649Z,95116.62
2022-09-06T16:02:03.926Z,95120.02
2022-09-06T16:04:31.593Z,95121.48
2022-09-06T16:06:58.445Z,95120.90
2022-09-06T16:09:25.584Z,95120.92
2022-09-06T16:11:52.841Z,95120.55
2022-09-06T16:14:19.696Z,95126.89
2022-09-06T16:16:46.826Z,95124.05
2022-09-06T16:19:14.300Z,95121.19
2022-09-06T16:21:43.313Z,95115.86
2022-09-06T16:24:13.475Z,95118.86
2022-09-06T16:26:46.458Z,95118.16
2022-09-06T16:29:16.788Z,95113.28
2022-09-06T16:31:44.441Z,95115.23
2022-09-06T16:34:12.467Z,95116.33
2022-09-06T16:36:40.022Z,95121.78
2022-09-06T16:39:08.176Z,95125.90
2022-09-06T16:41:44.323Z,95125.98
2022-09-06T16:44:16.756Z,95130.33
2022-09-06T16:46:45.940Z,95130.35
2022-09-06T16:49:13.675Z,95131.38
2022-09-06T16:51:45.680Z,95129.39
2022-09-06T16:54:14.160Z,95125.47
2022-09-06T16:56:41.824Z,95128.92
2022-09-06T16:59:12.234Z,95131.40
2022-09-06T17:01:44.556Z,95128.39
2022-09-06T17:04:13.264Z,95130.48
2022-09-06T17:06:44.793Z,95133.92
2022-09-06T17:09:19.697Z,95135.70
2022-09-06T17:11:50.313Z,95139.01
2022-09-06T17:14:18.797Z,95141.80
2022-09-06T17:17:05.215Z,95144.48
2022-09-06T17:19:41.477Z,95141.02
2022-09-06T17:22:10.524Z,95143.77
2022-09-06T17:24:39.145Z,95144.71
2022-09-06T17:27:09.075Z,95144.02
2022-09-06T17:29:36.326Z,95144.73
2022-09-06T17:32:04.737Z,95149.63
2022-09-06T17:34:31.577Z,95153.77
2022-09-06T17:36:58.442Z,95158.62
2022-09-06T17:39:25.367Z,95161.52
2022-09-06T17:41:54.439Z,95164.23
2022-09-06T17:44:26.671Z,95168.23
2022-09-06T17:47:14.794Z,95163.76
2022-09-06T17:49:42.801Z,95168.84
2022-09-06T17:52:10.003Z,95172.35
2022-09-06T17:54:37.071Z,95176.63
2022-09-06T17:57:03.992Z,95176.42
2022-09-06T17:59:35.038Z,95177.14
2022-09-06T18:02:02.494Z,95179.77
2022-09-06T18:04:29.417Z,95180.04
2022-09-06T18:06:56.218Z,95184.61
2022-09-06T18:09:23.044Z,95182.30
2022-09-06T18:11:49.945Z,95187.00
2022-09-06T18:14:21.127Z,95187.74
2022-09-06T18:16:51.288Z,95191.88
2022-09-06T18:19:18.889Z,95188.36
2022-09-06T18:21:46.927Z,95194.98
2022-09-06T18:24:14.090Z,95193.13
2022-09-06T18:26:41.771Z,95197.11
2022-09-06T18:29:13.518Z,95195.11
2022-09-06T18:31:42.190Z,95199.86
2022-09-06T18:34:09.720Z,95197.45
2022-09-06T18:36:38.388Z,95199.48
2022-09-06T18:39:05.435Z,95202.09
2022-09-06T18:41:52.234Z,95201.73
2022-09-06T18:44:19.684Z,95201.36
2022-09-06T18:46:47.360Z,95203.10
2022-09-06T18:49:15.917Z,95206.30
2022-09-06T18:51:43.440Z,95209.89
2022-09-06T18:54:11.487Z,95212.45
2022-09-06T18:56:40.817Z,95214.39
2022-09-06T18:59:08.150Z,95211.77
2022-09-06T19:01:35.500Z,95214.64
2022-09-06T19:04:04.759Z,95216.84
2022-09-06T19:06:35.301Z,95216.77
2022-09-06T19:09:07.797Z,95220.34
2022-09-06T19:11:35.335Z,95221.27
2022-09-06T19:14:02.976Z,95221.96
2022-09-06T19:16:31.926Z,95221.50
2022-09-06T19:19:07.431Z,95219.71
2022-09-06T19:21:39.353Z,95216.16
2022-09-06T19:24:10.691Z,95217.35
2022-09-06T19:26:40.096Z,95220.85
2022-09-06T19:29:11.940Z,95224.02
2022-09-06T19:31:39.149Z,95223.93
2022-09-06T19:34:06.603Z,95228.15
2022-09-06T19:36:33.939Z,95223.83
2022-09-06T19:39:07.455Z,95225.67
2022-09-06T19:41:38.184Z,95224.09
2022-09-06T19:44:08.665Z,95230.67
2022-09-06T19:46:36.523Z,95227.03
2022-09-06T19:49:04.914Z,95220.15
2022-09-06T19:51:33.349Z,95219.63
2022-09-06T19:54:00.545Z,95219.60
2022-09-06T19:56:31.875Z,95218.10
2022-09-06T19:59:07.287Z,95218.59
2022-09-06T20:01:35.912Z,95220.35
2022-09-06T20:04:05.803Z,95217.27
2022-09-06T20:06:33.793Z,95220.95
2022-09-06T20:09:02.655Z,95220.48
2022-09-06T20:11:31.623Z,95222.33
2022-09-06T20:13:59.497Z,95222.83
2022-09-06T20:16:27.316Z,95221.99
2022-09-06T20:19:01.663Z,95221.54
2022-09-06T20:21:29.358Z,95224.27
2022-09-06T20:23:58.389Z,95223.83
2022-09-06T20:26:27.553Z,95225.64
2022-09-06T20:28:56.645Z,95223.34
2022-09-06T20:31:24.023Z,95226.89
2022-09-06T20:33:50.984Z,95224.92
2022-09-06T20:36:18.943Z,95226.43
2022-09-06T20:38:47.794Z,95223.52
2022-09-06T20:41:25.603Z,95217.51
2022-09-06T20:43:54.335Z,95221.10
2022-09-06T20:46:23.917Z,95221.06
2022-09-06T20:48:52.225Z,95219.30
2022-09-06T20:51:21.631Z,95220.40
2022-09-06T20:53:54.515Z,95221.98
2022-09-06T20:56:26.883Z,95224.06
2022-09-06T20:58:56.493Z,95223.28
2022-09-06T21:01:25.802Z,95221.34
2022-09-06T21:03:56.325Z,95220.46
2022-09-06T21:06:24.558Z,95220.16
2022-09-06T21:08:51.447Z,95220.13
2022-09-06T21:11:19.040Z,95226.95
2022-09-06T21:13:53.645Z,95224.09
2022-09-06T21:16:24.620Z,95221.64
2022-09-06T21:18:53.269Z,95223.23
2022-09-06T21:21:20.453Z,95223.03
2022-09-06T21:23:47.347Z,95221.63
2022-09-06T21:26:16.548Z,95218.24
2022-09-06T21:28:45.169Z,95219.01
2022-09-06T21:31:17.742Z,95214.37
2022-09-06T21:33:46.771Z,95213.17
2022-09-06T21:36:18.932Z,95209.23
2022-09-06T21:38:51.026Z,95210.80
2022-09-06T21:41:19.135Z,95216.59
2022-09-06T21:43:46.366Z,95219.80
2022-09-06T21:46:16.677Z,95221.73
2022-09-06T21:48:46.340Z,95220.76
2022-09-06T21:51:16.458Z,95220.67
2022-09-06T21:53:45.394Z,95225.89
2022-09-06T21:56:13.031Z,95228.16
2022-09-06T21:58:40.291Z,95229.08
2022-09-06T22:01:07.941Z,95227.48
2022-09-06T22:03:41.642Z,95229.84
2022-09-06T22:06:10.426Z,95224.52
2022-09-06T22:08:37.410Z,95224.27
2022-09-06T22:11:28.014Z,95222.23
2022-09-06T22:14:01.968Z,95217.04
2022-09-06T22:16:30.409Z,95214.30
2022-09-06T22:18:59.889Z,95211.20
2022-09-06T22:21:26.827Z,95208.48
2022-09-06T22:23:59.752Z,95209.41
2022-09-06T22:26:28.827Z,95210.48
2022-09-06T22:28:58.761Z,95210.80
2022-09-06T22:31:27.229Z,95206.46
2022-09-06T22:33:54.969Z,95206.55
2022-09-06T22:36:22.134Z,95209.05
2022-09-06T22:38:49.185Z,95202.52
2022-09-06T22:41:15.961Z,95202.23
2022-09-06T22:43:42.914Z,95200.59
2022-09-06T22:46:11.448Z,95201.84
2022-09-06T22:48:38.624Z,95201.69
2022-09-06T22:51:09.328Z,95197.89
2022-09-06T22:53:36.541Z,95198.16
2022-09-06T22:56:03.890Z,95197.64
2022-09-06T22:58:30.795Z,95200.17
2022-09-06T23:01:06.636Z,95203.19
2022-09-06T23:03:33.721Z,95203.23
2022-09-06T23:06:01.035Z,95200.41
2022-09-06T23:08:28.066Z,95198.02
2022-09-06T23:10:54.865Z,95198.10
2022-09-06T23:13:21.619Z,95199.16
2022-09-06T23:15:48.613Z,95195.15
2022-09-06T23:18:15.568Z,95192.36
2022-09-06T23:20:42.375Z,95198.95
2022-09-06T23:23:09.285Z,95194.89
2022-09-06T23:25:39.611Z,95195.41
2022-09-06T23:28:07.038Z,95196.60
2022-09-06T23:30:38.154Z,95195.23
2022-09-06T23:33:05.391Z,95192.39
2022-09-06T23:35:32.121Z,95194.36
2022-09-06T23:37:58.932Z,95196.23
2022-09-06T23:40:26.081Z,95194.11
2022-09-06T23:42:52.902Z,95197.13
2022-09-06T23:45:19.729Z,95202.21
2022-09-06T23:47:46.530Z,95208.78
2022-09-06T23:50:13.416Z,95206.14
2022-09-06T23:52:40.266Z,95207.33
2022-09-06T23:55:09.494Z,95209.52
2022-09-06T23:57:41.501Z,95209.45
